Time;durP1;ratioP1;P1;durP2;ratioP2;P2;SDS_P1;SDS_P2;PMS_P1;PMS_P2;Temp;Humidity;BMP_temperature;BMP_pressure;BME280_temperature;BME280_humidity;BME280_pressure;Samples;Min_cycle;Max_cycle;Signal;HPM_P1;HPM_P2
2022/12/07 00:02:12;;;;;;;;;;;4.80;99.90;;;;;;5076253;28;20289;-65
2022/12/07 00:04:37;;;;;;;;;;;4.80;99.90;;;;;;5076261;28;19909;-65
2022/12/07 00:07:04;;;;;;;;;;;4.80;99.90;;;;;;5076193;28;19909;-65
2022/12/07 00:09:29;;;;;;;;;;;4.80;99.90;;;;;;5076464;28;19915;-65
2022/12/07 00:11:55;;;;;;;;;;;4.80;99.90;;;;;;5076114;28;20366;-65
2022/12/07 00:14:20;;;;;;;;;;;4.70;99.90;;;;;;5075921;28;20323;-65
2022/12/07 00:16:48;;;;;;;;;;;4.80;99.90;;;;;;5075970;28;20350;-65
2022/12/07 00:19:14;;;;;;;;;;;4.80;99.90;;;;;;5076260;28;20384;-65
2022/12/07 00:21:39;;;;;;;;;;;4.80;99.90;;;;;;5075890;28;20003;-66
2022/12/07 00:24:05;;;;;;;;;;;4.80;99.90;;;;;;5076131;28;20324;-66
2022/12/07 00:26:34;;;;;;;;;;;4.70;99.90;;;;;;5058062;28;19908;-66
2022/12/07 00:29:01;;;;;;;;;;;4.80;99.90;;;;;;5076099;28;19947;-65
2022/12/07 00:31:29;;;;;;;;;;;4.80;99.90;;;;;;5076032;28;20252;-65
2022/12/07 00:33:54;;;;;;;;;;;4.70;99.90;;;;;;5075988;28;19908;-66
2022/12/07 00:36:22;;;;;;;;;;;4.80;99.90;;;;;;5075981;28;19958;-65
2022/12/07 00:38:47;;;;;;;;;;;4.80;99.90;;;;;;5075599;28;19915;-66
2022/12/07 00:41:14;;;;;;;;;;;4.80;99.90;;;;;;5075512;28;19916;-66
2022/12/07 00:43:40;;;;;;;;;;;4.80;99.90;;;;;;5075821;28;20016;-65
2022/12/07 00:46:05;;;;;;;;;;;4.90;99.90;;;;;;5075486;28;20366;-65
2022/12/07 00:48:31;;;;;;;;;;;4.80;99.90;;;;;;5075729;28;19908;-65
2022/12/07 00:50:57;;;;;;;;;;;4.80;99.90;;;;;;5075651;28;19908;-65
2022/12/07 00:53:22;;;;;;;;;;;4.80;99.90;;;;;;5075650;28;19913;-66
2022/12/07 00:55:48;;;;;;;;;;;4.80;99.90;;;;;;5075583;28;20345;-65
2022/12/07 00:58:13;;;;;;;;;;;4.80;99.90;;;;;;5075522;28;19912;-65
2022/12/07 01:00:40;;;;;;;;;;;4.90;99.90;;;;;;5075470;28;19909;-66
2022/12/07 01:03:06;;;;;;;;;;;4.90;99.90;;;;;;5075356;28;20307;-66
2022/12/07 01:05:32;;;;;;;;;;;4.80;99.90;;;;;;5075084;28;19909;-66
2022/12/07 01:07:58;;;;;;;;;;;4.90;99.90;;;;;;5075328;28;20011;-66
2022/12/07 01:10:23;;;;;;;;;;;4.90;99.90;;;;;;5075238;28;19930;-65
2022/12/07 01:12:48;;;;;;;;;;;4.90;99.90;;;;;;5075237;28;19909;-66
2022/12/07 01:15:14;;;;;;;;;;;4.90;99.90;;;;;;5074899;28;19908;-66
2022/12/07 01:17:39;;;;;;;;;;;4.90;99.90;;;;;;5074834;28;20362;-66
2022/12/07 01:20:06;;;;;;;;;;;4.90;99.90;;;;;;5075102;28;19961;-66
2022/12/07 01:22:31;;;;;;;;;;;4.90;99.90;;;;;;5074983;28;20401;-66
2022/12/07 01:24:56;;;;;;;;;;;4.90;99.90;;;;;;5074927;28;19909;-66
2022/12/07 01:27:22;;;;;;;;;;;4.80;99.90;;;;;;5074171;28;19912;-66
2022/12/07 01:29:47;;;;;;;;;;;4.90;99.90;;;;;;5074875;28;19915;-66
2022/12/07 01:32:13;;;;;;;;;;;4.90;99.90;;;;;;5074825;28;19912;-65
2022/12/07 01:34:38;;;;;;;;;;;4.90;99.90;;;;;;5074837;28;19974;-66
2022/12/07 01:37:04;;;;;;;;;;;4.90;99.90;;;;;;5074484;28;20328;-66
2022/12/07 01:39:29;;;;;;;;;;;4.90;99.90;;;;;;5074686;28;19915;-66
2022/12/07 01:41:55;;;;;;;;;;;4.90;99.90;;;;;;5074143;28;20435;-66
2022/12/07 01:47:02;;;;;;;;;;;4.80;99.90;;;;;;5071135;28;19913;-67
2022/12/07 01:49:30;;;;;;;;;;;4.80;99.90;;;;;;5071230;28;19919;-67
2022/12/07 01:51:59;;;;;;;;;;;4.80;99.90;;;;;;5071219;28;19909;-67
2022/12/07 01:54:25;;;;;;;;;;;4.80;99.90;;;;;;5071201;28;20330;-66
2022/12/07 01:56:52;;;;;;;;;;;4.80;99.90;;;;;;5070822;28;19941;-67
2022/12/07 01:59:19;;;;;;;;;;;4.80;99.90;;;;;;5070777;28;19958;-66
2022/12/07 02:01:44;;;;;;;;;;;4.80;99.90;;;;;;5070727;28;19954;-67
2022/12/07 02:04:10;;;;;;;;;;;4.80;99.90;;;;;;5070931;28;19913;-67
2022/12/07 02:06:36;;;;;;;;;;;4.80;99.90;;;;;;5070497;28;19966;-67
2022/12/07 02:09:02;;;;;;;;;;;4.80;99.90;;;;;;5070852;28;19909;-67
2022/12/07 02:11:27;;;;;;;;;;;4.80;99.90;;;;;;5070809;28;19923;-67
2022/12/07 02:13:53;;;;;;;;;;;4.70;99.90;;;;;;5070754;28;19908;-67
2022/12/07 02:16:39;;;;;;;;;;;4.80;99.90;;;;;;5070448;28;19916;-67
2022/12/07 02:22:10;;;;;;;;;;;4.70;99.90;;;;;;5091435;27;19935;-67
2022/12/07 02:24:45;;;;;;;;;;;4.70;99.90;;;;;;5091332;28;20267;-67
2022/12/07 02:27:30;;;;;;;;;;;4.70;99.90;;;;;;5091404;28;19999;-67
2022/12/07 02:30:12;;;;;;;;;;;4.70;99.90;;;;;;5091191;28;20332;-67
2022/12/07 02:32:58;;;;;;;;;;;4.70;99.90;;;;;;5091275;28;20282;-67
2022/12/07 02:35:28;;;;;;;;;;;4.70;99.90;;;;;;5090974;28;20428;-67
2022/12/07 02:38:09;;;;;;;;;;;4.70;99.90;;;;;;5090983;28;20007;-67
2022/12/07 02:40:43;;;;;;;;;;;4.70;99.90;;;;;;5091046;28;19918;-67
2022/12/07 02:43:16;;;;;;;;;;;4.70;99.90;;;;;;5091106;28;19931;-66
2022/12/07 02:45:43;;;;;;;;;;;4.70;99.90;;;;;;5091047;28;19912;-67
2022/12/07 02:48:10;;;;;;;;;;;4.60;99.90;;;;;;5090735;28;20361;-67
2022/12/07 02:50:35;;;;;;;;;;;4.60;99.90;;;;;;5090683;28;19909;-67
2022/12/07 02:53:01;;;;;;;;;;;4.60;99.90;;;;;;5090621;28;20418;-66
2022/12/07 02:55:30;;;;;;;;;;;4.50;99.90;;;;;;5090881;28;19931;-66
2022/12/07 02:58:15;;;;;;;;;;;4.50;99.90;;;;;;5090840;28;19959;-67
2022/12/07 03:00:46;;;;;;;;;;;4.40;99.90;;;;;;5090497;28;19916;-67
2022/12/07 03:03:13;;;;;;;;;;;4.30;99.90;;;;;;5090707;28;19942;-64
2022/12/07 03:05:47;;;;;;;;;;;4.20;99.90;;;;;;5090379;28;19908;-64
2022/12/07 03:08:19;;;;;;;;;;;4.10;99.90;;;;;;5090346;28;19915;-65
2022/12/07 03:10:52;;;;;;;;;;;4.10;99.90;;;;;;5090272;28;20003;-64
2022/12/07 03:13:37;;;;;;;;;;;4.20;99.90;;;;;;5090491;28;20373;-64
2022/12/07 03:16:10;;;;;;;;;;;4.10;99.90;;;;;;5090214;28;19909;-65
2022/12/07 03:18:38;;;;;;;;;;;4.10;99.90;;;;;;5090130;28;19909;-65
2022/12/07 03:21:06;;;;;;;;;;;3.90;99.90;;;;;;5104134;28;19920;-64
2022/12/07 03:23:33;;;;;;;;;;;3.90;99.90;;;;;;5110367;28;20010;-64
2022/12/07 03:26:00;;;;;;;;;;;3.80;99.90;;;;;;5110367;28;19908;-64
2022/12/07 03:28:29;;;;;;;;;;;3.70;99.90;;;;;;5110297;28;19931;-65
2022/12/07 03:30:56;;;;;;;;;;;3.70;99.90;;;;;;5110328;28;19912;-64
2022/12/07 03:33:24;;;;;;;;;;;3.70;99.90;;;;;;5096123;28;19908;-65
2022/12/07 03:35:56;;;;;;;;;;;3.60;99.90;;;;;;5096600;28;19909;-64
2022/12/07 03:38:25;;;;;;;;;;;3.50;99.90;;;;;;5096538;28;19918;-65
2022/12/07 03:40:54;;;;;;;;;;;3.50;99.90;;;;;;5096712;28;19912;-64
2022/12/07 03:43:20;;;;;;;;;;;3.50;99.90;;;;;;5096741;28;20378;-64
2022/12/07 03:45:56;;;;;;;;;;;3.50;99.90;;;;;;5096654;28;19908;-64
2022/12/07 03:48:25;;;;;;;;;;;3.40;99.90;;;;;;5096343;28;19989;-64
2022/12/07 03:50:53;;;;;;;;;;;3.30;99.90;;;;;;5096301;28;20063;-65
2022/12/07 03:53:22;;;;;;;;;;;3.30;99.90;;;;;;5078107;28;20294;-65
2022/12/07 03:55:48;;;;;;;;;;;3.30;99.90;;;;;;5096484;28;20293;-65
2022/12/07 03:58:17;;;;;;;;;;;3.20;99.90;;;;;;5096403;28;20038;-65
2022/12/07 04:00:43;;;;;;;;;;;3.30;99.90;;;;;;5096037;28;19916;-65
2022/12/07 04:03:09;;;;;;;;;;;3.30;99.90;;;;;;5096330;28;20259;-65
2022/12/07 04:05:35;;;;;;;;;;;3.30;99.90;;;;;;5096263;28;19908;-64
2022/12/07 04:08:00;;;;;;;;;;;3.30;99.90;;;;;;5096263;28;19914;-64
2022/12/07 04:10:26;;;;;;;;;;;3.30;99.90;;;;;;5096178;28;19908;-65
2022/12/07 04:12:51;;;;;;;;;;;3.30;99.90;;;;;;5095866;28;20370;-64
2022/12/07 04:15:16;;;;;;;;;;;3.30;99.90;;;;;;5096076;28;19912;-64
2022/12/07 04:17:42;;;;;;;;;;;3.30;99.90;;;;;;5095786;28;19908;-64
2022/12/07 04:20:08;;;;;;;;;;;3.30;99.90;;;;;;5095468;28;19920;-64
2022/12/07 04:22:33;;;;;;;;;;;3.20;99.90;;;;;;5095953;28;19908;-64
2022/12/07 04:24:59;;;;;;;;;;;3.30;99.90;;;;;;5095906;28;19915;-64
2022/12/07 04:27:24;;;;;;;;;;;3.20;99.90;;;;;;5095587;28;19962;-65
2022/12/07 04:29:50;;;;;;;;;;;3.20;99.90;;;;;;5095803;28;19908;-65
2022/12/07 04:32:15;;;;;;;;;;;3.20;99.90;;;;;;5095745;28;19908;-64
2022/12/07 04:34:40;;;;;;;;;;;3.20;99.90;;;;;;5095726;28;19958;-64
2022/12/07 04:37:06;;;;;;;;;;;3.10;99.90;;;;;;5095440;28;20476;-65
2022/12/07 04:39:32;;;;;;;;;;;3.10;99.90;;;;;;5095523;28;20357;-65
2022/12/07 04:41:57;;;;;;;;;;;3.10;99.90;;;;;;5095251;28;19915;-65
2022/12/07 04:44:23;;;;;;;;;;;3.10;99.90;;;;;;5094282;28;19908;-65
2022/12/07 04:46:49;;;;;;;;;;;3.10;99.90;;;;;;5095505;28;19908;-65
2022/12/07 04:49:15;;;;;;;;;;;3.00;99.90;;;;;;5077080;28;20329;-64
2022/12/07 04:51:41;;;;;;;;;;;3.00;99.90;;;;;;5095168;28;20297;-65
2022/12/07 04:54:07;;;;;;;;;;;3.00;99.90;;;;;;5095386;28;19908;-64
2022/12/07 04:56:34;;;;;;;;;;;3.00;99.90;;;;;;5095059;28;19908;-64
2022/12/07 04:59:00;;;;;;;;;;;3.00;99.90;;;;;;5095255;28;19973;-64
2022/12/07 05:01:25;;;;;;;;;;;2.90;99.90;;;;;;5094866;28;19912;-65
2022/12/07 05:03:51;;;;;;;;;;;2.90;99.90;;;;;;5094907;28;19912;-64
2022/12/07 05:06:17;;;;;;;;;;;2.90;99.90;;;;;;5094836;28;19915;-64
2022/12/07 05:08:42;;;;;;;;;;;2.80;99.90;;;;;;5094778;28;20049;-65
2022/12/07 05:11:09;;;;;;;;;;;2.80;99.90;;;;;;5094735;28;19915;-64
2022/12/07 05:13:35;;;;;;;;;;;2.90;99.90;;;;;;5094981;28;19923;-65
2022/12/07 05:16:00;;;;;;;;;;;2.80;99.90;;;;;;5094681;28;19908;-65
2022/12/07 05:18:26;;;;;;;;;;;2.90;99.90;;;;;;5094614;28;19908;-65
2022/12/07 05:20:51;;;;;;;;;;;2.80;99.90;;;;;;5094417;28;20321;-65
2022/12/07 05:23:17;;;;;;;;;;;2.80;99.90;;;;;;5094783;28;19995;-65
2022/12/07 05:25:43;;;;;;;;;;;2.80;99.90;;;;;;5094490;28;19908;-65
2022/12/07 05:28:09;;;;;;;;;;;2.80;99.90;;;;;;5094469;28;19908;-65
2022/12/07 05:30:34;;;;;;;;;;;2.90;99.90;;;;;;5094656;28;19957;-64
2022/12/07 05:33:00;;;;;;;;;;;3.00;99.90;;;;;;5094344;28;19915;-65
2022/12/07 05:35:26;;;;;;;;;;;3.00;99.90;;;;;;5094331;28;19995;-64
2022/12/07 05:37:51;;;;;;;;;;;3.00;99.90;;;;;;5094277;28;19934;-64
2022/12/07 05:40:16;;;;;;;;;;;2.90;99.90;;;;;;5094166;28;19912;-64
2022/12/07 05:42:42;;;;;;;;;;;2.90;99.90;;;;;;5094166;28;19908;-65
2022/12/07 05:45:09;;;;;;;;;;;2.90;99.90;;;;;;5094393;28;19908;-65
2022/12/07 05:47:35;;;;;;;;;;;2.90;99.90;;;;;;5075924;28;19909;-65
2022/12/07 05:50:00;;;;;;;;;;;2.90;99.90;;;;;;5094375;28;19908;-64
2022/12/07 05:52:26;;;;;;;;;;;2.90;99.90;;;;;;5075915;28;20285;-65
2022/12/07 05:54:52;;;;;;;;;;;3.00;99.90;;;;;;5094011;28;19916;-65
2022/12/07 05:57:17;;;;;;;;;;;3.00;99.90;;;;;;5094273;28;19908;-65
2022/12/07 05:59:43;;;;;;;;;;;3.00;99.90;;;;;;5094150;28;19908;-65
2022/12/07 06:02:10;;;;;;;;;;;3.00;99.90;;;;;;5093925;28;19912;-65
2022/12/07 06:04:37;;;;;;;;;;;3.00;99.90;;;;;;5094097;28;20317;-65
2022/12/07 06:07:03;;;;;;;;;;;3.00;99.90;;;;;;5094106;28;20026;-66
2022/12/07 06:09:29;;;;;;;;;;;3.10;99.90;;;;;;5093962;28;19908;-65
2022/12/07 06:14:41;;;;;;;;;;;3.20;99.90;;;;;;5093554;28;19908;-65
2022/12/07 06:17:06;;;;;;;;;;;3.20;99.90;;;;;;5094027;28;19916;-64
2022/12/07 06:19:32;;;;;;;;;;;3.20;99.90;;;;;;5093411;28;20488;-64
2022/12/07 06:21:58;;;;;;;;;;;3.20;99.90;;;;;;5093691;28;19909;-64
2022/12/07 06:24:23;;;;;;;;;;;3.20;99.90;;;;;;5093873;28;19931;-65
2022/12/07 06:26:49;;;;;;;;;;;3.20;99.90;;;;;;5093917;28;19916;-67
2022/12/07 06:29:14;;;;;;;;;;;3.30;99.90;;;;;;5093938;28;19970;-64
2022/12/07 06:31:40;;;;;;;;;;;3.30;99.90;;;;;;5093822;28;19912;-64
2022/12/07 06:34:09;;;;;;;;;;;3.30;99.90;;;;;;5093563;28;19916;-64
2022/12/07 06:36:35;;;;;;;;;;;3.30;99.90;;;;;;5093837;28;20011;-64
2022/12/07 06:39:00;;;;;;;;;;;3.30;99.90;;;;;;5093821;28;19986;-64
2022/12/07 06:41:26;;;;;;;;;;;3.30;99.90;;;;;;5093670;28;19918;-65
2022/12/07 06:43:51;;;;;;;;;;;3.30;99.90;;;;;;5093735;28;19936;-64
2022/12/07 06:46:17;;;;;;;;;;;3.20;99.90;;;;;;5093433;28;20343;-65
2022/12/07 06:48:42;;;;;;;;;;;3.20;99.90;;;;;;5093692;28;19915;-64
2022/12/07 06:51:08;;;;;;;;;;;3.20;99.90;;;;;;5093468;28;19916;-64
2022/12/07 06:53:34;;;;;;;;;;;3.20;99.90;;;;;;5093372;28;19931;-64
2022/12/07 06:56:00;;;;;;;;;;;3.30;99.90;;;;;;5093596;28;19955;-65
2022/12/07 06:58:25;;;;;;;;;;;3.30;99.90;;;;;;5093273;28;19996;-65
2022/12/07 07:00:51;;;;;;;;;;;3.20;99.90;;;;;;5093233;28;19916;-65
2022/12/07 07:03:16;;;;;;;;;;;3.20;99.90;;;;;;5093575;28;19912;-65
2022/12/07 07:05:42;;;;;;;;;;;3.10;99.90;;;;;;5093525;28;19916;-65
2022/12/07 07:08:08;;;;;;;;;;;3.00;99.90;;;;;;5096437;28;19908;-65
2022/12/07 07:10:33;;;;;;;;;;;3.00;99.90;;;;;;5097228;28;19908;-65
2022/12/07 07:12:59;;;;;;;;;;;3.00;99.90;;;;;;5097008;28;19954;-65
2022/12/07 07:15:24;;;;;;;;;;;3.00;99.90;;;;;;5097202;28;19931;-65
2022/12/07 07:17:50;;;;;;;;;;;3.00;99.90;;;;;;5097159;28;20358;-65
2022/12/07 07:20:16;;;;;;;;;;;3.00;99.90;;;;;;5096844;28;19920;-65
2022/12/07 07:22:41;;;;;;;;;;;3.00;99.90;;;;;;5096801;28;19974;-65
2022/12/07 07:25:07;;;;;;;;;;;3.00;99.90;;;;;;5097031;28;19973;-65
2022/12/07 07:27:32;;;;;;;;;;;3.00;99.90;;;;;;5096699;28;19908;-65
2022/12/07 07:29:57;;;;;;;;;;;3.00;99.90;;;;;;5096891;28;19915;-65
2022/12/07 07:32:23;;;;;;;;;;;3.00;99.90;;;;;;5096872;28;19916;-65
2022/12/07 07:34:48;;;;;;;;;;;3.00;99.90;;;;;;5096798;28;19991;-65
2022/12/07 07:37:14;;;;;;;;;;;3.00;99.90;;;;;;5094999;28;20394;-65
2022/12/07 07:39:39;;;;;;;;;;;2.90;99.90;;;;;;5095797;28;20381;-65
2022/12/07 07:42:05;;;;;;;;;;;2.90;99.90;;;;;;5096401;28;19915;-65
2022/12/07 07:44:31;;;;;;;;;;;2.90;99.90;;;;;;5095185;28;19912;-65
2022/12/07 07:46:56;;;;;;;;;;;2.80;99.90;;;;;;5096357;28;20369;-65
2022/12/07 07:49:22;;;;;;;;;;;2.80;99.90;;;;;;5095744;28;19912;-65
2022/12/07 07:51:47;;;;;;;;;;;2.70;99.90;;;;;;5096168;28;19925;-65
2022/12/07 07:54:12;;;;;;;;;;;2.70;99.90;;;;;;5096094;28;20000;-65
2022/12/07 07:56:38;;;;;;;;;;;2.70;99.90;;;;;;5096101;28;20436;-65
2022/12/07 07:59:03;;;;;;;;;;;2.70;99.90;;;;;;5095798;28;19912;-65
2022/12/07 08:01:29;;;;;;;;;;;2.70;99.90;;;;;;5096203;28;19912;-65
2022/12/07 08:03:54;;;;;;;;;;;2.80;99.90;;;;;;5096221;28;19908;-65
2022/12/07 08:06:20;;;;;;;;;;;3.00;99.90;;;;;;5095928;28;19951;-65
2022/12/07 08:08:45;;;;;;;;;;;3.00;99.90;;;;;;5095666;28;20439;-65
2022/12/07 08:11:11;;;;;;;;;;;3.00;99.90;;;;;;5096066;28;20007;-65
2022/12/07 08:13:37;;;;;;;;;;;3.00;99.90;;;;;;5095728;28;19909;-65
2022/12/07 08:16:03;;;;;;;;;;;3.10;99.90;;;;;;5095999;28;19908;-65
2022/12/07 08:18:28;;;;;;;;;;;3.40;99.90;;;;;;5095304;28;19912;-65
2022/12/07 08:20:58;;;;;;;;;;;3.60;99.90;;;;;;5077208;28;20338;-65
2022/12/07 08:23:24;;;;;;;;;;;3.70;99.90;;;;;;5095075;28;19923;-65
2022/12/07 08:25:49;;;;;;;;;;;3.70;99.90;;;;;;5092271;28;19912;-65
2022/12/07 08:28:15;;;;;;;;;;;4.00;99.90;;;;;;5095136;28;19912;-65
2022/12/07 08:30:40;;;;;;;;;;;4.00;99.90;;;;;;5095549;28;19915;-65
2022/12/07 08:33:06;;;;;;;;;;;3.90;99.90;;;;;;5095640;28;19908;-65
2022/12/07 08:35:32;;;;;;;;;;;4.20;99.90;;;;;;5095018;28;20304;-65
2022/12/07 08:37:58;;;;;;;;;;;4.20;99.90;;;;;;5095279;28;19908;-65
2022/12/07 08:40:23;;;;;;;;;;;4.40;99.90;;;;;;5095413;28;19919;-66
2022/12/07 08:42:49;;;;;;;;;;;4.50;99.90;;;;;;5095147;28;19916;-66
2022/12/07 08:45:15;;;;;;;;;;;4.60;99.90;;;;;;5094565;28;20649;-65
2022/12/07 08:47:43;;;;;;;;;;;4.70;99.90;;;;;;5094252;28;19912;-65
2022/12/07 08:50:10;;;;;;;;;;;4.70;99.90;;;;;;5094242;28;20381;-65
2022/12/07 08:52:35;;;;;;;;;;;4.60;99.90;;;;;;5094222;28;19912;-66
2022/12/07 08:55:01;;;;;;;;;;;4.60;99.90;;;;;;5094713;28;19916;-65
2022/12/07 08:57:27;;;;;;;;;;;4.40;99.90;;;;;;5094336;28;19912;-65
2022/12/07 08:59:53;;;;;;;;;;;4.30;99.90;;;;;;5095022;28;19908;-66
2022/12/07 09:02:18;;;;;;;;;;;4.00;99.90;;;;;;5094770;28;20390;-65
2022/12/07 09:04:44;;;;;;;;;;;4.40;99.90;;;;;;5094675;28;19910;-65
2022/12/07 09:07:10;;;;;;;;;;;4.70;99.90;;;;;;5094141;28;19912;-65
2022/12/07 09:09:35;;;;;;;;;;;5.30;99.90;;;;;;5094865;28;19999;-65
2022/12/07 09:12:01;;;;;;;;;;;5.70;99.90;;;;;;5094878;28;19999;-65
2022/12/07 09:14:26;;;;;;;;;;;6.40;99.90;;;;;;5094763;28;20372;-65
2022/12/07 09:16:52;;;;;;;;;;;6.50;99.90;;;;;;5093958;28;20018;-65
2022/12/07 09:19:17;;;;;;;;;;;6.70;99.90;;;;;;5094375;28;19915;-66
2022/12/07 09:21:43;;;;;;;;;;;7.10;99.90;;;;;;5094094;28;19936;-66
2022/12/07 09:24:09;;;;;;;;;;;7.30;99.90;;;;;;5094059;28;19908;-66
2022/12/07 09:26:35;;;;;;;;;;;7.60;99.90;;;;;;5094087;28;19966;-66
2022/12/07 09:29:02;;;;;;;;;;;7.70;99.90;;;;;;5094323;28;19908;-66
2022/12/07 09:31:27;;;;;;;;;;;7.70;99.90;;;;;;5094193;28;19951;-66
2022/12/07 09:33:55;;;;;;;;;;;7.80;99.90;;;;;;5094076;28;19931;-66
2022/12/07 09:36:20;;;;;;;;;;;7.80;99.90;;;;;;5093891;28;19912;-66
2022/12/07 09:38:46;;;;;;;;;;;8.20;99.90;;;;;;5094074;28;19914;-66
2022/12/07 09:41:11;;;;;;;;;;;8.00;99.90;;;;;;5075852;28;20297;-66
2022/12/07 09:43:39;;;;;;;;;;;7.80;99.90;;;;;;5075949;28;19908;-66
2022/12/07 09:46:04;;;;;;;;;;;7.50;99.90;;;;;;5093780;28;19943;-66
2022/12/07 09:48:31;;;;;;;;;;;7.30;99.90;;;;;;5093876;28;19912;-66
2022/12/07 09:50:58;;;;;;;;;;;7.00;99.90;;;;;;5093597;28;19912;-65
2022/12/07 09:53:28;;;;;;;;;;;6.60;99.90;;;;;;5093886;28;19931;-65
2022/12/07 09:55:54;;;;;;;;;;;6.50;99.90;;;;;;5094123;28;19916;-65
2022/12/07 09:58:22;;;;;;;;;;;6.10;99.90;;;;;;5094073;28;19999;-65
2022/12/07 10:00:49;;;;;;;;;;;6.00;99.90;;;;;;5093162;28;19916;-66
2022/12/07 10:03:15;;;;;;;;;;;5.70;99.90;;;;;;5094034;28;20278;-65
2022/12/07 10:05:49;;;;;;;;;;;5.50;99.90;;;;;;5093588;28;19908;-65
2022/12/07 10:08:16;;;;;;;;;;;5.40;99.90;;;;;;5096004;28;19912;-65
2022/12/07 10:10:42;;;;;;;;;;;5.30;99.90;;;;;;5103408;28;20258;-66
2022/12/07 10:13:09;;;;;;;;;;;5.30;99.90;;;;;;5093179;28;19953;-65
2022/12/07 10:15:55;;;;;;;;;;;5.40;99.90;;;;;;5093978;28;19912;-65
2022/12/07 10:18:41;;;;;;;;;;;5.40;99.90;;;;;;5103444;28;19937;-65
2022/12/07 10:24:06;;;;;;;;;;;5.50;99.90;;;;;;5077822;28;19912;-67
2022/12/07 10:26:41;;;;;;;;;;;5.50;99.90;;;;;;5082754;28;20022;-67
2022/12/07 10:29:23;;;;;;;;;;;5.80;99.90;;;;;;5078094;28;19954;-67
2022/12/07 10:31:54;;;;;;;;;;;6.10;99.90;;;;;;5068627;28;19912;-67
2022/12/07 10:34:24;;;;;;;;;;;6.90;99.90;;;;;;5082131;28;19908;-67
2022/12/07 10:36:50;;;;;;;;;;;7.30;99.90;;;;;;5077340;28;19916;-68
2022/12/07 10:39:20;;;;;;;;;;;7.70;99.90;;;;;;5086961;28;19909;-67
2022/12/07 10:44:32;;;;;;;;;;;7.00;99.90;;;;;;5101508;28;19923;-67
2022/12/07 10:47:07;;;;;;;;;;;6.50;99.90;;;;;;5096256;28;19958;-67
2022/12/07 10:49:43;;;;;;;;;;;6.40;99.90;;;;;;5107725;28;20011;-67
2022/12/07 10:52:18;;;;;;;;;;;6.40;99.90;;;;;;5098677;28;19912;-65
2022/12/07 10:55:03;;;;;;;;;;;6.40;99.90;;;;;;5098113;28;19909;-67
2022/12/07 10:57:48;;;;;;;;;;;6.40;99.90;;;;;;5107049;28;19919;-65
2022/12/07 11:00:22;;;;;;;;;;;6.50;99.90;;;;;;5099098;28;19908;-66
2022/12/07 11:02:54;;;;;;;;;;;6.60;99.90;;;;;;5098313;28;20016;-67
2022/12/07 11:05:40;;;;;;;;;;;7.20;99.90;;;;;;5107516;28;19954;-67
2022/12/07 11:08:15;;;;;;;;;;;7.70;99.90;;;;;;5097568;28;19919;-67
2022/12/07 11:10:48;;;;;;;;;;;8.10;99.90;;;;;;5096671;28;19913;-67
2022/12/07 11:13:24;;;;;;;;;;;8.00;99.90;;;;;;5092707;28;19908;-67
2022/12/07 11:18:40;;;;;;;;;;;7.50;99.90;;;;;;5070691;28;19923;-66
2022/12/07 11:21:09;;;;;;;;;;;7.30;99.90;;;;;;5071054;28;19919;-65
2022/12/07 11:23:45;;;;;;;;;;;7.20;99.90;;;;;;5065257;28;19909;-65
2022/12/07 11:26:30;;;;;;;;;;;7.00;99.90;;;;;;5053449;28;19912;-65
2022/12/07 11:29:02;;;;;;;;;;;7.10;99.90;;;;;;5050518;28;19920;-65
2022/12/07 11:31:34;;;;;;;;;;;6.80;99.90;;;;;;5050559;28;19959;-65
2022/12/07 11:34:08;;;;;;;;;;;6.60;99.90;;;;;;5050726;28;20341;-64
2022/12/07 11:36:41;;;;;;;;;;;6.30;99.90;;;;;;5050538;28;19920;-65
2022/12/07 11:39:27;;;;;;;;;;;6.30;99.90;;;;;;5050798;28;19955;-64
2022/12/07 11:41:56;;;;;;;;;;;6.20;99.90;;;;;;5049533;28;20291;-65
2022/12/07 11:44:31;;;;;;;;;;;6.20;99.90;;;;;;5050546;28;20007;-65
2022/12/07 11:47:01;;;;;;;;;;;6.10;99.90;;;;;;5049873;28;19909;-65
2022/12/07 11:49:37;;;;;;;;;;;6.00;99.90;;;;;;5049796;28;19958;-65
2022/12/07 11:52:03;;;;;;;;;;;6.10;99.90;;;;;;5049894;28;19992;-65
2022/12/07 11:54:31;;;;;;;;;;;6.20;99.90;;;;;;5050047;28;19913;-64
2022/12/07 11:57:01;;;;;;;;;;;6.20;99.90;;;;;;5049917;28;20367;-65
2022/12/07 11:59:32;;;;;;;;;;;6.20;99.90;;;;;;5050255;28;20350;-65
2022/12/07 12:02:02;;;;;;;;;;;6.20;99.90;;;;;;5049851;28;19909;-65
2022/12/07 12:04:33;;;;;;;;;;;6.20;99.90;;;;;;5049572;28;19913;-65
2022/12/07 12:06:59;;;;;;;;;;;6.20;99.90;;;;;;5049963;28;20375;-65
2022/12/07 12:09:27;;;;;;;;;;;6.20;99.90;;;;;;5050928;28;20006;-65
2022/12/07 12:12:02;;;;;;;;;;;6.10;99.90;;;;;;5049149;28;19916;-65
2022/12/07 12:14:48;;;;;;;;;;;6.00;99.90;;;;;;5049906;28;19959;-65
2022/12/07 12:17:30;;;;;;;;;;;5.90;99.90;;;;;;5052238;28;19925;-65
2022/12/07 12:20:04;;;;;;;;;;;5.80;99.90;;;;;;5053165;28;19917;-66
2022/12/07 12:22:34;;;;;;;;;;;5.80;99.90;;;;;;5052857;28;20352;-65
2022/12/07 12:25:03;;;;;;;;;;;5.90;99.90;;;;;;5068808;28;19999;-65
2022/12/07 12:27:31;;;;;;;;;;;5.80;99.90;;;;;;5067035;28;20016;-65
2022/12/07 12:29:59;;;;;;;;;;;5.80;99.90;;;;;;5044934;28;19913;-66
2022/12/07 12:32:41;;;;;;;;;;;5.70;99.90;;;;;;5046988;28;19917;-65
2022/12/07 12:35:26;;;;;;;;;;;5.70;99.90;;;;;;5047951;28;19917;-65
2022/12/07 12:37:52;;;;;;;;;;;5.70;99.90;;;;;;5036447;28;19960;-66
2022/12/07 12:42:59;;;;;;;;;;;5.60;99.90;;;;;;5070806;28;19917;-67
2022/12/07 12:45:28;;;;;;;;;;;5.60;99.90;;;;;;5070562;28;19995;-67
2022/12/07 12:47:54;;;;;;;;;;;5.50;99.90;;;;;;5070993;28;20386;-67
2022/12/07 12:50:22;;;;;;;;;;;5.50;99.90;;;;;;5070497;28;19909;-65
2022/12/07 12:52:51;;;;;;;;;;;5.40;99.90;;;;;;5070852;28;20322;-66
2022/12/07 12:55:20;;;;;;;;;;;5.40;99.90;;;;;;5070463;28;20393;-64
2022/12/07 12:57:46;;;;;;;;;;;5.30;99.90;;;;;;5070124;28;19919;-65
2022/12/07 13:00:20;;;;;;;;;;;5.20;99.90;;;;;;5086148;28;19909;-64
2022/12/07 13:02:48;;;;;;;;;;;5.30;99.90;;;;;;5055141;28;19917;-66
2022/12/07 13:05:16;;;;;;;;;;;5.30;99.90;;;;;;5070710;28;19931;-66
2022/12/07 13:15:53;;;;;;;;;;;5.60;99.90;;;;;;5090653;27;19917;-67
2022/12/07 13:18:36;;;;;;;;;;;5.70;99.90;;;;;;5078907;28;19916;-67
2022/12/07 13:21:21;;;;;;;;;;;5.70;99.90;;;;;;5079744;28;19919;-67
2022/12/07 13:26:35;;;;;;;;;;;5.70;99.90;;;;;;5071408;28;20355;-64
2022/12/07 13:29:17;;;;;;;;;;;5.70;99.90;;;;;;5070618;28;19956;-67
2022/12/07 13:31:45;;;;;;;;;;;5.70;99.90;;;;;;5071037;28;19909;-67
2022/12/07 13:34:30;;;;;;;;;;;5.70;99.90;;;;;;5070753;28;19913;-67
2022/12/07 13:36:56;;;;;;;;;;;5.80;99.90;;;;;;5068351;28;19927;-67
2022/12/07 13:39:23;;;;;;;;;;;5.80;99.90;;;;;;5065882;28;19912;-67
2022/12/07 13:41:51;;;;;;;;;;;5.80;99.90;;;;;;5067692;28;20348;-67
2022/12/07 13:44:17;;;;;;;;;;;5.70;99.90;;;;;;5068382;28;20008;-67
2022/12/07 13:46:48;;;;;;;;;;;5.70;99.90;;;;;;5068363;28;19935;-68
2022/12/07 13:49:18;;;;;;;;;;;5.60;99.90;;;;;;5069662;28;20251;-66
2022/12/07 13:51:43;;;;;;;;;;;5.50;99.90;;;;;;5064269;28;20286;-67
2022/12/07 13:54:11;;;;;;;;;;;5.50;99.90;;;;;;5060095;28;19913;-65
2022/12/07 13:56:37;;;;;;;;;;;5.40;99.90;;;;;;5070075;28;19948;-67
2022/12/07 13:59:05;;;;;;;;;;;5.40;99.90;;;;;;5069145;28;19999;-67
2022/12/07 14:01:31;;;;;;;;;;;5.30;99.90;;;;;;5069608;28;19912;-67
2022/12/07 14:04:15;;;;;;;;;;;5.30;99.90;;;;;;5070002;28;19909;-66
2022/12/07 14:06:49;;;;;;;;;;;5.30;99.90;;;;;;5069666;28;20408;-67
2022/12/07 14:09:17;;;;;;;;;;;5.40;99.90;;;;;;5063554;28;19956;-67
2022/12/07 14:11:44;;;;;;;;;;;5.40;99.90;;;;;;5049803;28;19983;-67
2022/12/07 14:14:13;;;;;;;;;;;5.40;99.90;;;;;;5066617;28;19951;-67
2022/12/07 14:16:39;;;;;;;;;;;5.30;99.90;;;;;;5061652;28;19917;-67
2022/12/07 14:19:05;;;;;;;;;;;5.30;99.90;;;;;;5049850;28;19909;-67
2022/12/07 14:21:32;;;;;;;;;;;5.20;99.90;;;;;;5048493;28;19909;-65
2022/12/07 14:24:18;;;;;;;;;;;5.20;99.90;;;;;;5049772;28;19909;-65
2022/12/07 14:26:46;;;;;;;;;;;5.20;99.90;;;;;;5077977;28;19940;-64
2022/12/07 14:29:19;;;;;;;;;;;5.20;99.90;;;;;;5089416;28;20355;-64
2022/12/07 14:31:45;;;;;;;;;;;5.10;99.90;;;;;;5088292;28;19928;-64
2022/12/07 14:34:12;;;;;;;;;;;5.10;99.90;;;;;;5072289;28;19916;-65
2022/12/07 14:36:37;;;;;;;;;;;5.10;99.90;;;;;;5075046;28;19943;-65
2022/12/07 14:39:02;;;;;;;;;;;5.10;99.90;;;;;;5069343;28;20355;-65
2022/12/07 14:41:59;;;;;;;;;;;5.10;99.90;;;;;;5075801;28;20330;-65
2022/12/07 14:44:13;;;;;;;;;;;5.00;99.90;;;;;;5073804;28;19912;-67
2022/12/07 14:46:39;;;;;;;;;;;5.00;99.90;;;;;;5057390;28;19912;-65
2022/12/07 14:49:05;;;;;;;;;;;5.00;99.90;;;;;;5074641;28;19920;-65
2022/12/07 14:51:31;;;;;;;;;;;4.90;99.90;;;;;;5072257;28;21513;-65
2022/12/07 14:53:56;;;;;;;;;;;5.00;99.90;;;;;;5037728;28;20277;-67
2022/12/07 14:56:22;;;;;;;;;;;5.00;99.90;;;;;;5055443;28;19935;-65
2022/12/07 14:58:48;;;;;;;;;;;5.00;99.90;;;;;;5056021;28;19913;-65
2022/12/07 15:01:13;;;;;;;;;;;5.00;99.90;;;;;;5073667;28;19955;-65
2022/12/07 15:03:39;;;;;;;;;;;4.90;99.90;;;;;;5072888;28;19931;-65
2022/12/07 15:06:05;;;;;;;;;;;4.90;99.90;;;;;;5059569;28;19916;-65
2022/12/07 15:08:30;;;;;;;;;;;4.90;99.90;;;;;;5071744;28;19917;-66